createdAt,value
2018-09-01T00:05:42.937Z,9.7
2018-09-01T00:11:37.963Z,10
2018-09-01T00:17:32.945Z,9.66
2018-09-01T00:23:28.022Z,9.62
2018-09-01T00:29:22.926Z,9.73
2018-09-01T00:35:17.951Z,9.89
2018-09-01T00:41:12.996Z,9.13
2018-09-01T00:47:07.950Z,10.24
2018-09-01T00:53:02.960Z,9.67
2018-09-01T00:58:57.972Z,9.04
2018-09-01T01:04:52.965Z,8.78
2018-09-01T01:10:47.964Z,8.6
2018-09-01T01:16:43.067Z,8.72
2018-09-01T01:22:37.993Z,9.92
2018-09-01T01:28:33.010Z,9.23
2018-09-01T01:34:28.007Z,8.79
2018-09-01T01:40:23.005Z,9.17
2018-09-01T01:46:18.010Z,8.6
2018-09-01T01:52:13.109Z,9.34
2018-09-01T01:58:08.022Z,9.03
2018-09-01T02:04:03.015Z,8.89
2018-09-01T02:09:58.023Z,8.96
2018-09-01T02:15:53.030Z,10.2
2018-09-01T02:21:48.019Z,8.94
2018-09-01T02:27:43.054Z,9.82
2018-09-01T02:33:38.088Z,9.82
2018-09-01T02:39:33.055Z,9.37
2018-09-01T02:45:28.086Z,9.63
2018-09-01T02:51:23.053Z,9.78
2018-09-01T02:57:18.069Z,9.25
2018-09-01T03:03:13.083Z,9.65
2018-09-01T03:09:08.089Z,10.06
2018-09-01T03:15:03.136Z,9.82
2018-09-01T03:20:58.104Z,8.7
2018-09-01T03:26:53.126Z,9.48
2018-09-01T03:32:48.101Z,9.44
2018-09-01T03:38:43.122Z,8.64
2018-09-01T03:44:38.138Z,9.25
2018-09-01T03:50:33.108Z,9.52
2018-09-01T03:56:28.145Z,8.93
2018-09-01T04:02:23.175Z,9.58
2018-09-01T04:08:18.134Z,9.13
2018-09-01T04:14:13.141Z,9.65
2018-09-01T04:20:08.150Z,8.03
2018-09-01T04:26:03.159Z,7.77
2018-09-01T04:31:58.181Z,9.2
2018-09-01T04:37:53.188Z,9.7
2018-09-01T04:43:48.272Z,9.83
2018-09-01T04:49:43.175Z,9.25
2018-09-01T04:55:38.181Z,8.97
2018-09-01T05:01:33.202Z,9.2
2018-09-01T05:07:28.214Z,9.41
2018-09-01T05:13:23.209Z,9.07
2018-09-01T05:19:18.238Z,9.24
2018-09-01T05:25:13.219Z,11.18
2018-09-01T05:31:08.255Z,6
2018-09-01T05:37:03.218Z,6
2018-09-01T05:42:58.253Z,5.65
2018-09-01T05:48:53.254Z,4.55
2018-09-01T05:54:48.258Z,4.87
2018-09-01T06:00:43.251Z,5.13
2018-09-01T06:06:38.260Z,6.59
2018-09-01T06:12:33.254Z,5.3
2018-09-01T06:18:28.311Z,5.01
2018-09-01T06:24:23.271Z,5.37
2018-09-01T06:30:18.322Z,4.54
2018-09-01T06:36:13.288Z,5.04
2018-09-01T06:42:08.296Z,5.62
2018-09-01T06:48:03.267Z,5.79
2018-09-01T06:53:58.300Z,6.87
2018-09-01T06:59:53.315Z,6.04
2018-09-01T07:05:48.357Z,4.63
2018-09-01T07:11:43.306Z,4.81
2018-09-01T07:17:38.329Z,3.93
2018-09-01T07:23:33.313Z,3.99
2018-09-01T07:29:28.367Z,4.24
2018-09-01T07:35:23.350Z,4.36
2018-09-01T07:41:18.326Z,4.1
2018-09-01T07:47:13.381Z,4.31
2018-09-01T07:53:08.369Z,3.7
2018-09-01T07:59:03.376Z,4.13
2018-09-01T08:04:58.390Z,3.83
2018-09-01T08:10:53.382Z,4.66
2018-09-01T08:16:48.374Z,4.98
2018-09-01T08:22:43.422Z,4.32
2018-09-01T08:28:38.367Z,3.82
2018-09-01T08:34:33.407Z,4.46
2018-09-01T08:40:28.414Z,3.96
2018-09-01T08:46:23.450Z,5.34
2018-09-01T08:52:18.413Z,5.9
2018-09-01T08:58:13.424Z,5.81
2018-09-01T09:04:08.464Z,5.15
2018-09-01T09:10:03.540Z,6.16
2018-09-01T09:15:58.442Z,5.98
2018-09-01T09:21:53.451Z,7.36
2018-09-01T09:27:48.442Z,7.21
2018-09-01T09:33:43.487Z,6.77
2018-09-01T09:39:38.465Z,6.52
2018-09-01T09:45:33.497Z,6.62
2018-09-01T09:51:28.534Z,6.11
2018-09-01T09:57:23.495Z,6.63
2018-09-01T10:03:18.499Z,5.81
2018-09-01T10:09:13.523Z,5.33
2018-09-01T10:15:08.539Z,5.18
2018-09-01T10:21:03.484Z,5.4
2018-09-01T10:26:58.529Z,6
2018-09-01T10:32:53.503Z,5.93
2018-09-01T10:38:48.506Z,6
2018-09-01T10:44:43.514Z,5.79
2018-09-01T10:50:38.518Z,4.72
2018-09-01T10:56:33.531Z,4.94
2018-09-01T11:02:28.562Z,5.93
2018-09-01T11:08:23.543Z,5.92
2018-09-01T11:14:18.542Z,4.94
2018-09-01T11:20:13.672Z,5.51
2018-09-01T11:26:08.561Z,5.42
2018-09-01T11:32:03.647Z,5.2
2018-09-01T11:37:58.575Z,5.7
2018-09-01T11:43:53.601Z,5.9
2018-09-01T11:49:48.571Z,5.58
2018-09-01T11:55:43.600Z,5.32
2018-09-01T12:01:38.611Z,5.46
2018-09-01T12:07:33.613Z,5.13
2018-09-01T12:13:28.595Z,4.43
2018-09-01T12:19:23.618Z,5.38
2018-09-01T12:25:18.617Z,6.39
2018-09-01T12:31:13.686Z,5.72
2018-09-01T12:37:08.616Z,4.84
2018-09-01T12:43:03.628Z,5.12
2018-09-01T12:48:58.633Z,4.61
2018-09-01T12:54:53.637Z,4.31
2018-09-01T13:00:48.697Z,4.27
2018-09-01T13:06:43.665Z,5.39
2018-09-01T13:12:38.715Z,4.17
2018-09-01T13:18:33.688Z,4.43
2018-09-01T13:24:28.729Z,4.3
2018-09-01T13:30:23.690Z,4.76
2018-09-01T13:36:18.686Z,6.48
2018-09-01T13:42:13.679Z,3.73
2018-09-01T13:48:08.700Z,3.87
2018-09-01T13:54:03.770Z,4.23
2018-09-01T13:59:58.731Z,3.75
2018-09-01T14:05:53.727Z,3.69
2018-09-01T14:11:48.790Z,4.43
2018-09-01T14:17:43.731Z,3.43
2018-09-01T14:23:38.719Z,3.52
2018-09-01T14:29:33.738Z,3.73
2018-09-01T14:35:28.780Z,3.75
2018-09-01T14:41:23.749Z,4.22
2018-09-01T14:47:18.951Z,4.33
2018-09-01T14:53:13.796Z,3.95
2018-09-01T14:59:08.858Z,4.12
2018-09-01T15:05:03.764Z,4.17
2018-09-01T15:10:58.829Z,4.19
2018-09-01T15:16:53.775Z,4.17
2018-09-01T15:22:48.811Z,4.89
2018-09-01T15:28:43.884Z,3.76
2018-09-01T15:34:38.822Z,3.43
2018-09-01T15:40:33.819Z,7.26
2018-09-01T15:46:28.831Z,5.09
2018-09-01T15:52:23.828Z,7.69
2018-09-01T15:58:18.818Z,11.17
2018-09-01T16:04:13.906Z,5.36
2018-09-01T16:10:08.852Z,4.64
2018-09-01T16:16:03.846Z,4.01
2018-09-01T16:21:58.844Z,4
2018-09-01T16:27:53.848Z,4.3
2018-09-01T16:33:48.921Z,3.99
2018-09-01T16:39:43.872Z,4.24
2018-09-01T16:45:38.869Z,3.65
2018-09-01T16:51:33.889Z,3.67
2018-09-01T16:57:28.896Z,3.65
2018-09-01T17:03:23.915Z,3.72
2018-09-01T17:09:18.906Z,3.27
2018-09-01T17:15:13.935Z,3.37
2018-09-01T17:21:08.912Z,3.97
2018-09-01T17:27:03.973Z,4.13
2018-09-01T17:32:58.960Z,4.11
2018-09-01T17:38:53.975Z,3.46
2018-09-01T17:44:48.917Z,4.34
2018-09-01T17:50:43.978Z,3.93
2018-09-01T17:56:39.093Z,3.54
2018-09-01T18:02:33.977Z,3.81
2018-09-01T18:08:28.965Z,3.43
2018-09-01T18:14:23.980Z,4.29
2018-09-01T18:20:19.032Z,6.26
2018-09-01T18:26:14.029Z,4.79
2018-09-01T18:32:08.990Z,4.97
2018-09-01T18:38:04.060Z,4.27
2018-09-01T18:43:58.996Z,4.87
2018-09-01T18:49:54.051Z,3.73
2018-09-01T18:55:49.215Z,4.48
2018-09-01T19:01:44.035Z,4.24
2018-09-01T19:07:39.005Z,3.87
2018-09-01T19:13:34.081Z,3.76
2018-09-01T19:19:29.019Z,4.24
2018-09-01T19:25:24.106Z,4.23
2018-09-01T19:31:19.039Z,3.85
2018-09-01T19:37:14.031Z,3.73
2018-09-01T19:43:09.068Z,4.1
2018-09-01T19:49:04.038Z,3.75
2018-09-01T19:54:59.058Z,4.27
2018-09-01T20:00:54.142Z,5.03
2018-09-01T20:06:49.100Z,3.92
2018-09-01T20:12:44.094Z,3.73
2018-09-01T20:18:39.146Z,3.92
2018-09-01T20:24:34.097Z,4.02
2018-09-01T20:30:29.086Z,3.9
2018-09-01T20:36:24.089Z,3.56
2018-09-01T20:42:19.110Z,3.86
2018-09-01T20:48:14.115Z,3.9
2018-09-01T20:54:09.125Z,3.85
2018-09-01T21:00:04.279Z,3.8
2018-09-01T21:05:59.136Z,4.32
2018-09-01T21:11:54.191Z,3.93
2018-09-01T21:17:49.145Z,3.69
2018-09-01T21:23:44.163Z,3.47
2018-09-01T21:29:39.155Z,4
2018-09-01T21:35:34.139Z,4.71
2018-09-01T21:41:29.188Z,3.96
2018-09-01T21:47:24.218Z,4
2018-09-01T21:53:19.166Z,3.9
2018-09-01T21:59:14.240Z,3.53
2018-09-01T22:05:09.228Z,3.75
2018-09-01T22:11:04.256Z,3.56
2018-09-01T22:16:59.248Z,3.84
2018-09-01T22:22:54.204Z,4.32
2018-09-01T22:28:49.211Z,3.61
2018-09-01T22:34:44.222Z,3.85
2018-09-01T22:40:39.223Z,3.31
2018-09-01T22:46:34.218Z,3.71
2018-09-01T22:52:29.257Z,3.95
2018-09-01T22:58:24.254Z,3.92
2018-09-01T23:04:19.240Z,4.1
2018-09-01T23:10:14.275Z,3.98
2018-09-01T23:16:09.248Z,4.09
2018-09-01T23:22:04.306Z,4.35
2018-09-01T23:27:59.333Z,3.5
2018-09-01T23:33:54.269Z,4.3
2018-09-01T23:39:49.262Z,4.24
2018-09-01T23:45:44.323Z,3.73
2018-09-01T23:51:39.279Z,4.1
2018-09-01T23:57:34.318Z,4.06
